Terminal Aerodrome Forecast
Issued by NWS

Home | Current Version | Previous Version | Text Only | Print | Product List | Glossary On
Versions: 1 2 3 4 5 6 7 8 9 10 11 12
410
FTUS43 KMPX 131128
TAFRNH
TAF
KRNH 131128Z 1312/1412 VRB02KT P6SM FEW250
     FM132000 19003KT P6SM SCT250
     FM140200 13005KT P6SM OVC100
     FM141100 13011KT 4SM -SN SCT020 OVC040=

USA.gov is the U.S. government's official web portal to all federal, state and local government web resources and services.